Tabella Stazioni Meteo Lazio



Provincia di Frosinone
ID Località Altitudine Data Temp (°C) Temp Min (°C) Temp Max (°C) Hum (%) Pressure (hPa) Wind (Km/h) Wind Dir Wind Gust (Km/h) Wind Gust Max (Km/h) Rain (mm) Dewpoint (°C)
ILAZIOCA7 Stazione meteo Campoli Appennino – Via Treo 499 m s.l.m. 2019-02-19 22:40:00 3.7 3.7 10.6 83 1023.0 0.0 NNE 0.0 0.0 0.00 1.0
ILAZIOPI2 Stazione meteo Pico – Colleponte 114 m s.l.m. 2019-02-19 21:04:26 4.8 4.8 13.3 86 1022.8 0.0 SSE 0.0 9.7 0.00 2.7
INOWUND02 Stazione meteo Alvito – Colle Santa Lucia 465 m s.l.m. 2019-02-19 21:54:53 3.5 3.5 13.3 83 1013.4 2.5 W 3.6 9.7 0.00 0.9
ILAZIOPO8 Stazione meteo Pontecorvo – Via Babuino 94 m s.l.m. 2019-02-19 21:04:47 5.6 4.4 12.7 81 1022.7 1.6 ONO 0.0 9.7 0.00 2.6
Provincia di Latina
ID Località Altitudine Data Temp (°C) Temp Min (°C) Temp Max (°C) Hum (%) Pressure (hPa) Wind (Km/h) Wind Dir Wind Gust (Km/h) Wind Gust Max (Km/h) Rain (mm) Dewpoint (°C)
ILAZIOCI9 Stazione meteo Cisterna – Centro Storico 81 m s.l.m. 2019-02-19 21:55:06 6.0 6.0 15.7 76 1018.8 3.6 N 6.1 13.3 0.00 2.1
ICISTERN7 Stazione meteo Cisterna – Indinvest LT 42 m s.l.m. 2019-02-19 21:55:07 6.9 6.7 13.4 76 1024.1 1.6 W 1.6 17.7 0.00 3.0
ILAZIOLA18 Stazione meteo Cisterna – San Valentino 93 m s.l.m. 2019-02-19 21:55:05 4.4 4.1 13.1 83 1038.5 0.0 W 0.0 15.8 0.00 1.8
ILATINA13 Stazione meteo Latina – Borgo Montello 31 m s.l.m. 2019-02-19 21:55:05 0.0 0.0 0.0 0 1017.9 0.0 N 0.0 0.0 0.00 0.0
Provincia di Roma
ID Località Altitudine Data Temp (°C) Temp Min (°C) Temp Max (°C) Hum (%) Pressure (hPa) Wind (Km/h) Wind Dir Wind Gust (Km/h) Wind Gust Max (Km/h) Rain (mm) Dewpoint (°C)
IROCCADI23 Stazione meteo Rocca di Papa – Pratoni del Vivaro 528 m s.l.m. 2019-02-19 22:54:24 -3.7 -3.7 8.1 96 1023.0 0.0 South 0.0 11.2 0.00 -4.0
IVELLETR14 Stazione meteo Velletri – Crocefissi 227m 227 m s.l.m. 2019-02-19 22:54:36 1.3 0.8 11.7 99 1023.0 3.6 West 3.6 9.4 0.00 1.0
ILAZIOVE10 Stazione meteo Velletri – Crocefissi 259m 259 m s.l.m. 2019-02-19 21:55:04 5.4 4.9 11.8 85 1024.1 3.6 NW 6.1 12.2 0.00 3.1
IROMAVEL2 Stazione meteo Velletri – 5 Archi 188 m s.l.m. 2019-02-19 21:54:34 3.4 3.3 12.2 80 1021.9 2.6 NW 3.6 17.3 0.00 0.3
IVELLETR20 Stazione meteo Velletri – Centro 380 m s.l.m. 2019-02-19 21:50:06 7.2 7.1 10.7 74 1005.9 0.0 W 2.5 23.4 0.00 2.9
IVELLETR22 Stazione meteo Velletri – San Clemente 335 m s.l.m. 2019-02-19 21:50:04 8.2 7.9 10.9 34 1011.9 0.0 N 1.1 20.9 0.00 -6.8
IVELLETR18 Stazione meteo Velletri – Fontana Fiume 512 m s.l.m. 2019-02-19 22:36:46 6.3 6.1 9.7 76 1022.0 5.0 East 8.6 18.4 0.00 2.0
ILAZIOLA23 Stazione meteo Lariano – Centro 370 m s.l.m. 2019-02-19 22:50:39 7.0 7.0 10.0 72 1022.0 4.7 West 7.9 7.9 0.00 2.0
ILAZIOMA6 Stazione meteo Artena – Macere 345 m s.l.m. 2019-02-19 22:39:29 5.6 5.4 10.3 77 1022.0 3.5 North 8.7 12.2 0.00 2.0
ILAZIOAR6 Stazione meteo Ardea – Via Pavia 20 m s.l.m. 2019-01-27 19:21:20 0.0 0.0 0.0 0 0.0 0.0 N 0.0 0.0 0.00 0.0
ILAZIOPO4 Stazione meteo Pomezia – Via Federico Fellini 78 m s.l.m. 2019-02-19 21:54:10 8.7 8.6 12.2 74 1023.0 0.0 WNW 0.0 3.2 0.00 4.3
INOWUND03 Stazione meteo Rocca di Papa – Monte Faete 970 m s.l.m. 2018-08-28 11:15:00 20.7 20.7 20.7 64 1017.1 2.5 SW 3.6 3.6 0.00 13.6
ILAZIOCE8 Stazione meteo Cerveteri – Madonna dei Canneti 106 m s.l.m. 2019-02-19 22:45:01 6.6 6.2 12.9 66 1023.0 0.0 SE 0.0 11.9 0.00 1.0
Provincia di Viterbo
ID Località Altitudine Data Temp (°C) Temp Min (°C) Temp Max (°C) Hum (%) Pressure (hPa) Wind (Km/h) Wind Dir Wind Gust (Km/h) Wind Gust Max (Km/h) Rain (mm) Dewpoint (°C)
INEPI3 Stazione meteo Nepi – Via Umiltà 216 m s.l.m. 2019-02-19 22:40:00 1.4 1.4 12.1 90 1022.0 0.6 SSW 1.8 9.3 0.00 0.0
ILAZIOCI6 Stazione meteo Civita Castellana – Via del Forte 135 m s.l.m. 0209-02-09 23:59:58 8.2 0.0 14.8 10 1023.8 0.5 292 0.0 13.6 0.00 -21.7
IVITERBO7 Stazione meteo Marta – Via Laertina 320 m s.l.m. 2019-02-19 21:04:20 5.8 5.6 10.8 82 1021.4 0.0 SW 0.0 16.6 0.00 2.9
ILAZIOVI8 Stazione meteo San Lorenzo Nuovo – Piazza Europa 519 m s.l.m. 2019-02-19 21:04:48 5.9 5.0 8.9 78 1021.0 0.0 N 0.0 20.5 0.00 2.3